Time;durP1;ratioP1;P1;durP2;ratioP2;P2;SDS_P1;SDS_P2;PMS_P1;PMS_P2;Temp;Humidity;BMP_temperature;BMP_pressure;BME280_temperature;BME280_humidity;BME280_pressure;Samples;Min_cycle;Max_cycle;Signal;HPM_P1;HPM_P2
2022/05/22 00:00:23;;;;;;;7.00;4.53;;;;;;;21.75;100.00;63132.91;5093448;28;20196;-73
2022/05/22 00:02:51;;;;;;;6.40;5.00;;;;;;;21.74;100.00;63129.22;5093175;28;20734;-74
2022/05/22 00:05:21;;;;;;;10.13;4.83;;;;;;;21.77;100.00;63135.59;5093133;28;20627;-72
2022/05/22 00:07:48;;;;;;;7.40;4.87;;;;;;;21.75;100.00;63132.91;5092672;28;20207;-73
2022/05/22 00:10:15;;;;;;;5.80;4.60;;;;;;;21.14;100.00;63061.66;5093686;28;20710;-72
2022/05/22 00:12:43;;;;;;;5.77;4.50;;;;;;;21.66;100.00;63117.97;5093307;28;20196;-72
2022/05/22 00:15:13;;;;;;;8.10;4.97;;;;;;;21.61;100.00;63112.56;5092970;28;20658;-73
2022/05/22 00:17:40;;;;;;;9.00;4.80;;;;;;;21.16;100.00;63069.56;5093288;28;20260;-72
2022/05/22 00:20:10;;;;;;;5.80;4.87;;;;;;;21.70;100.00;63122.28;5093486;28;20192;-72
2022/05/22 00:22:37;;;;;;;6.67;5.20;;;;;;;21.05;100.00;63057.13;5093411;28;20227;-72
2022/05/22 00:25:10;;;;;;;9.40;4.47;;;;;;;21.79;100.00;63132.03;5093219;28;20265;-72
2022/05/22 00:27:37;;;;;;;7.33;4.40;;;;;;;21.73;100.00;63130.72;5093368;28;20233;-72
2022/05/22 00:30:05;;;;;;;10.77;4.67;;;;;;;21.59;100.00;63113.50;5093094;28;20196;-73
2022/05/22 00:32:32;;;;;;;6.77;4.57;;;;;;;21.68;100.00;63120.13;5092566;28;20278;-73
2022/05/22 00:34:59;;;;;;;6.40;4.83;;;;;;;21.67;100.00;63124.25;5092598;28;20284;-72
2022/05/22 00:37:27;;;;;;;6.57;4.63;;;;;;;21.67;100.00;63119.06;5092549;28;20199;-73
2022/05/22 00:39:54;;;;;;;7.93;4.70;;;;;;;21.53;100.00;63109.06;5091795;28;20202;-71
2022/05/22 00:42:23;;;;;;;7.27;4.37;;;;;;;21.49;100.00;63104.75;5092385;28;20235;-72
2022/05/22 00:44:50;;;;;;;7.53;4.33;;;;;;;21.22;100.00;63078.09;5092348;28;20196;-72
2022/05/22 00:47:18;;;;;;;8.87;5.10;;;;;;;21.52;100.00;63102.81;5092356;28;20272;-73
2022/05/22 00:49:46;;;;;;;8.97;4.60;;;;;;;21.29;100.00;63080.50;5092707;28;20257;-72
2022/05/22 00:52:16;;;;;;;7.03;4.30;;;;;;;21.42;100.00;63095.13;5092633;28;20204;-72
2022/05/22 00:54:50;;;;;;;7.57;4.40;;;;;;;21.43;100.00;63095.66;5092405;28;20743;-72
2022/05/22 00:57:23;;;;;;;8.10;4.27;;;;;;;21.59;100.00;63110.38;5092859;28;20200;-73
2022/05/22 00:59:56;;;;;;;8.83;4.33;;;;;;;21.55;100.00;63108.66;5092635;28;20207;-72
2022/05/22 01:02:23;;;;;;;6.23;4.20;;;;;;;21.54;100.00;63107.56;5092173;28;20728;-72
2022/05/22 01:04:52;;;;;;;8.20;4.70;;;;;;;21.59;100.00;63107.78;5091984;28;20200;-72
2022/05/22 01:07:19;;;;;;;8.30;4.73;;;;;;;21.47;100.00;63097.41;5092559;28;20195;-72
2022/05/22 01:09:49;;;;;;;9.70;4.50;;;;;;;21.55;100.00;63111.25;5092059;28;20195;-72
2022/05/22 01:12:18;;;;;;;5.43;4.47;;;;;;;21.40;100.00;63095.00;5091647;28;20211;-72
2022/05/22 01:14:47;;;;;;;5.53;4.37;;;;;;;20.91;100.00;63043.03;5092135;28;20203;-72
2022/05/22 01:17:16;;;;;;;8.23;4.10;;;;;;;21.47;100.00;63102.59;5091885;28;20199;-71
2022/05/22 01:19:55;;;;;;;7.53;4.13;;;;;;;21.07;100.00;63064.47;5091943;28;20203;-72
2022/05/22 01:22:23;;;;;;;4.50;4.03;;;;;;;21.40;100.00;63090.34;5091826;28;20249;-72
2022/05/22 01:24:50;;;;;;;9.07;5.10;;;;;;;21.42;100.00;63095.13;5091619;28;20655;-72
2022/05/22 01:27:20;;;;;;;7.27;4.47;;;;;;;21.49;100.00;63099.56;5092369;28;20541;-72
2022/05/22 01:29:46;;;;;;;6.03;4.50;;;;;;;21.36;100.00;63088.06;5091848;28;20196;-73
2022/05/22 01:32:13;;;;;;;6.60;4.73;;;;;;;21.32;100.00;63083.75;5091801;28;20667;-73
2022/05/22 01:34:41;;;;;;;6.43;4.57;;;;;;;21.17;100.00;63072.69;5091782;28;20215;-72
2022/05/22 01:37:09;;;;;;;5.77;4.47;;;;;;;21.28;100.00;63079.41;5083684;28;20228;-73
2022/05/22 01:39:38;;;;;;;6.80;4.30;;;;;;;21.14;100.00;63069.44;5083378;28;20630;-71
2022/05/22 01:42:07;;;;;;;7.03;4.57;;;;;;;21.23;100.00;63071.41;5091716;28;20253;-71
2022/05/22 01:44:33;;;;;;;8.77;4.83;;;;;;;21.27;100.00;63075.75;5091684;28;20203;-72
2022/05/22 01:47:02;;;;;;;5.57;4.40;;;;;;;21.20;100.00;63068.16;5091585;28;20195;-72
2022/05/22 01:49:28;;;;;;;5.87;4.40;;;;;;;21.10;100.00;63062.53;5091456;28;20264;-72
2022/05/22 01:51:55;;;;;;;5.87;4.13;;;;;;;21.14;100.00;63061.66;5097625;28;20204;-73
2022/05/22 01:54:22;;;;;;;4.37;3.90;;;;;;;21.15;100.00;63067.94;5098361;28;20199;-72
2022/05/22 01:56:51;;;;;;;4.27;3.77;;;;;;;21.19;100.00;63072.28;5097817;28;20697;-72
2022/05/22 01:59:17;;;;;;;6.47;3.80;;;;;;;21.13;100.00;63065.78;5098250;28;20196;-72
2022/05/22 02:01:44;;;;;;;6.43;3.63;;;;;;;21.13;100.00;63066.31;5098215;28;20204;-72
2022/05/22 02:04:11;;;;;;;8.97;4.00;;;;;;;21.16;100.00;63069.03;5098026;28;20203;-72
2022/05/22 02:08:18;;;;;;;4.50;3.23;;;;;;;21.24;100.00;63078.22;5098307;28;20195;-71
2022/05/22 02:09:24;;;;;;;9.47;3.57;;;;;;;21.32;100.00;63081.69;5097966;28;20214;-72
2022/05/22 02:11:52;;;;;;;5.60;3.27;;;;;;;21.35;100.00;63089.59;5098012;28;20201;-71
2022/05/22 02:14:21;;;;;;;4.20;3.50;;;;;;;21.38;100.00;63090.78;5098049;28;20204;-72
2022/05/22 02:16:47;;;;;;;3.73;3.10;;;;;;;21.30;100.00;63081.59;5097929;28;20230;-71
2022/05/22 02:19:14;;;;;;;8.77;2.90;;;;;;;21.38;100.00;63087.66;5098105;28;20259;-72
2022/05/22 02:21:41;;;;;;;5.97;3.47;;;;;;;21.20;100.00;63073.34;5098297;28;20191;-72
2022/05/22 02:24:08;;;;;;;5.73;2.93;;;;;;;21.20;100.00;63073.34;5098424;28;20200;-72
2022/05/22 02:26:35;;;;;;;5.33;3.33;;;;;;;21.23;100.00;63074.00;5098327;28;20669;-71
2022/05/22 02:29:03;;;;;;;7.00;3.10;;;;;;;21.33;100.00;63082.25;5098094;28;20196;-71
2022/05/22 02:31:30;;;;;;;5.83;3.20;;;;;;;21.33;100.00;63085.38;5097880;28;20211;-73
2022/05/22 02:33:57;;;;;;;6.23;3.00;;;;;;;21.19;100.00;63069.69;5098381;28;20219;-71
2022/05/22 02:36:24;;;;;;;4.47;3.40;;;;;;;21.15;100.00;63062.75;5097921;28;20227;-73
2022/05/22 02:38:51;;;;;;;6.03;2.90;;;;;;;21.10;100.00;63063.06;5097963;28;20203;-72
2022/05/22 02:41:19;;;;;;;3.87;2.90;;;;;;;20.69;100.00;63013.50;5097769;28;20239;-72
2022/05/22 02:43:45;;;;;;;7.30;3.50;;;;;;;21.14;100.00;63061.66;5097738;28;20199;-72
2022/05/22 02:46:15;;;;;;;4.23;2.43;;;;;;;21.11;100.00;63064.16;5097197;28;20747;-72
2022/05/22 02:48:43;;;;;;;3.50;2.80;;;;;;;20.95;100.00;63047.34;5098105;28;20199;-73
2022/05/22 02:51:12;;;;;;;3.50;2.47;;;;;;;20.98;100.00;63042.28;5097994;28;20207;-73
2022/05/22 02:53:38;;;;;;;4.07;2.73;;;;;;;20.85;100.00;63030.81;5097676;28;20191;-72
2022/05/22 02:56:09;;;;;;;6.00;2.70;;;;;;;21.01;100.00;63048.69;5097704;28;20280;-72
2022/05/22 02:58:38;;;;;;;4.73;2.50;;;;;;;20.95;100.00;63044.75;5097563;28;20195;-72
2022/05/22 03:01:04;;;;;;;6.93;2.47;;;;;;;20.86;100.00;63037.63;5097971;28;20196;-71
2022/05/22 03:03:33;;;;;;;2.90;2.53;;;;;;;20.81;100.00;63032.22;5093390;28;20260;-73
2022/05/22 03:08:40;;;;;;;2.87;2.50;;;;;;;20.88;100.00;63039.78;5081320;28;20256;-72
2022/05/22 03:11:08;;;;;;;4.10;2.43;;;;;;;20.39;100.00;62981.59;5094267;28;20192;-72
2022/05/22 03:13:36;;;;;;;5.23;2.57;;;;;;;21.00;100.00;63052.78;5094409;28;20199;-73
2022/05/22 03:16:04;;;;;;;2.37;2.17;;;;;;;20.75;100.00;63025.72;5094362;28;20227;-71
2022/05/22 03:18:31;;;;;;;7.57;2.27;;;;;;;21.11;100.00;63061.03;5093972;28;20196;-72
2022/05/22 03:21:01;;;;;;;3.23;2.27;;;;;;;21.07;100.00;63054.09;5094107;28;20196;-73
2022/05/22 03:23:28;;;;;;;3.67;2.13;;;;;;;20.73;100.00;63020.97;5094096;28;20199;-72
2022/05/22 03:25:55;;;;;;;4.10;2.30;;;;;;;21.09;100.00;63061.97;5094498;28;20290;-72
2022/05/22 03:28:23;;;;;;;3.30;2.33;;;;;;;21.20;100.00;63073.34;5093937;28;20192;-72
2022/05/22 03:30:50;;;;;;;5.73;2.30;;;;;;;21.17;100.00;63064.94;5093926;28;20595;-72
2022/05/22 03:33:17;;;;;;;4.53;2.67;;;;;;;21.20;100.00;63068.16;5093979;28;20219;-73
2022/05/22 03:35:44;;;;;;;5.53;2.00;;;;;;;21.11;100.00;63064.16;5093646;28;20253;-73
2022/05/22 03:38:13;;;;;;;4.50;2.20;;;;;;;21.09;100.00;63056.81;5093587;28;20203;-72
2022/05/22 03:40:46;;;;;;;8.20;2.40;;;;;;;21.11;100.00;63064.16;5093790;28;20293;-74
2022/05/22 03:43:15;;;;;;;3.10;1.83;;;;;;;21.05;100.00;63057.66;5093943;28;20253;-73
2022/05/22 03:45:43;;;;;;;2.10;1.90;;;;;;;21.11;100.00;63064.16;5093622;28;20192;-72
2022/05/22 03:48:10;;;;;;;1.80;1.63;;;;;;;20.78;100.00;63026.38;5093642;28;20234;-71
2022/05/22 03:50:38;;;;;;;3.20;2.03;;;;;;;21.13;100.00;63061.13;5093587;28;20191;-72
2022/05/22 03:53:06;;;;;;;2.20;2.00;;;;;;;21.19;100.00;63067.09;5093653;28;20199;-72
2022/05/22 03:55:35;;;;;;;3.93;1.80;;;;;;;20.77;99.01;63024.75;5093768;28;20661;-71
2022/05/22 03:58:02;;;;;;;4.50;2.00;;;;;;;21.26;95.54;63074.66;5093652;28;20202;-73
2022/05/22 04:00:29;;;;;;;2.43;1.83;;;;;;;21.36;96.92;63090.66;5093429;28;20249;-72
2022/05/22 04:02:57;;;;;;;3.80;1.90;;;;;;;21.45;94.20;63095.22;5093260;28;20660;-72
2022/05/22 04:05:24;;;;;;;3.33;2.00;;;;;;;21.49;91.13;63100.09;5093105;28;20693;-72
2022/05/22 04:07:52;;;;;;;6.37;1.80;;;;;;;21.36;90.07;63090.66;5093277;28;20196;-72
2022/05/22 04:10:19;;;;;;;2.17;1.70;;;;;;;21.66;89.15;63120.56;5093145;28;20195;-73
2022/05/22 04:12:48;;;;;;;4.83;1.73;;;;;;;21.78;87.50;63130.94;5093159;28;20658;-71
2022/05/22 04:15:18;;;;;;;3.80;1.67;;;;;;;21.83;84.74;63139.00;5093027;28;20734;-71
2022/05/22 04:17:45;;;;;;;3.23;2.00;;;;;;;21.77;87.36;63132.47;5093183;28;20237;-73
2022/05/22 04:20:13;;;;;;;3.03;1.67;;;;;;;21.75;87.03;63127.72;5093262;28;20196;-73
2022/05/22 04:25:22;;;;;;;7.90;2.30;;;;;;;21.78;86.37;63134.09;5091933;28;20202;-71
2022/05/22 04:27:51;;;;;;;24.70;3.20;;;;;;;21.87;99.93;63145.38;5093187;28;20214;-72
2022/05/22 04:30:18;;;;;;;5.57;2.20;;;;;;;21.79;92.41;63137.22;5092910;28;20636;-73
2022/05/22 04:32:46;;;;;;;7.67;2.30;;;;;;;21.38;94.21;63093.38;5092709;28;20584;-72
2022/05/22 04:35:13;;;;;;;10.03;2.80;;;;;;;21.85;100.00;63141.69;5092806;28;20264;-73
2022/05/22 04:37:42;;;;;;;54.63;5.57;;;;;;;21.53;100.00;63106.50;5092528;28;20613;-73
2022/05/22 04:40:12;;;;;;;3.77;1.90;;;;;;;21.99;96.94;63156.31;5092791;28;20200;-73
2022/05/22 04:42:41;;;;;;;3.10;1.70;;;;;;;21.79;93.90;63132.03;5092773;28;20196;-73
2022/05/22 04:45:12;;;;;;;4.87;2.20;;;;;;;21.66;98.96;63117.97;5092918;28;20192;-74
2022/05/22 04:47:42;;;;;;;2.90;1.83;;;;;;;20.78;96.60;63028.44;5092937;28;20291;-73
2022/05/22 04:50:11;;;;;;;3.67;1.70;;;;;;;21.70;98.03;63122.28;5092804;28;20195;-73
2022/05/22 04:52:40;;;;;;;4.13;1.90;;;;;;;21.84;94.70;63137.47;5092532;28;20658;-73
2022/05/22 04:55:09;;;;;;;4.73;2.00;;;;;;;21.81;91.42;63142.53;5074492;28;20195;-72
2022/05/22 04:57:39;;;;;;;4.90;1.93;;;;;;;21.85;87.01;63139.09;5092702;28;20674;-72
2022/05/22 05:00:11;;;;;;;3.20;1.63;;;;;;;21.93;85.44;63147.22;5092451;28;20203;-72
2022/05/22 05:02:40;;;;;;;2.67;1.80;;;;;;;21.86;86.12;63139.63;5092251;28;20253;-72
2022/05/22 05:05:08;;;;;;;2.63;1.80;;;;;;;21.33;84.91;63087.44;5092479;28;20198;-72
2022/05/22 05:07:38;;;;;;;5.87;1.70;;;;;;;22.08;83.96;63166.06;5074363;28;20199;-72
2022/05/22 05:10:07;;;;;;;5.93;1.90;;;;;;;22.06;85.27;63166.47;5092413;28;20192;-74
2022/05/22 05:12:36;;;;;;;3.07;1.93;;;;;;;22.03;87.27;63163.25;5092504;28;20192;-72
2022/05/22 05:15:03;;;;;;;3.40;2.03;;;;;;;21.99;87.45;63153.72;5092192;28;20325;-73
2022/05/22 05:17:31;;;;;;;4.53;2.27;;;;;;;21.96;87.21;63144.72;5091993;28;20277;-71
2022/05/22 05:19:58;;;;;;;3.93;1.50;;;;;;;21.99;89.94;63158.38;5091986;28;20637;-71
2022/05/22 05:22:25;;;;;;;2.87;1.77;;;;;;;22.13;91.84;63174.06;5091797;28;20352;-73
2022/05/22 05:24:52;;;;;;;3.77;1.87;;;;;;;22.14;90.92;63169.41;5091220;28;20223;-72
2022/05/22 05:27:22;;;;;;;8.03;2.13;;;;;;;22.26;91.96;63188.16;5091824;28;20202;-74
2022/05/22 05:29:49;;;;;;;3.27;2.00;;;;;;;22.37;100.00;63194.88;5092396;28;20200;-73
2022/05/22 05:32:18;;;;;;;3.07;2.00;;;;;;;22.22;100.00;63178.06;5091847;28;20204;-72
2022/05/22 05:34:48;;;;;;;5.33;1.83;;;;;;;22.32;97.62;63194.66;5091512;28;20344;-71
2022/05/22 05:37:17;;;;;;;3.50;1.97;;;;;;;21.86;91.95;63142.22;5091957;28;20284;-72
2022/05/22 05:39:45;;;;;;;7.07;2.17;;;;;;;22.35;93.31;63197.34;5091628;28;20735;-73
2022/05/22 05:42:12;;;;;;;2.60;2.00;;;;;;;22.57;92.63;63216.56;5092017;28;20231;-71
2022/05/22 05:44:41;;;;;;;4.60;1.77;;;;;;;22.34;89.86;63194.22;5091810;28;20204;-72
2022/05/22 05:47:09;;;;;;;5.03;2.10;;;;;;;22.48;91.27;63206.78;5091768;28;20214;-73
2022/05/22 05:49:37;;;;;;;6.47;2.17;;;;;;;22.49;91.49;63212.53;5092059;28;20205;-72
2022/05/22 05:52:06;;;;;;;2.60;1.97;;;;;;;22.33;91.97;63195.75;5092173;28;20207;-72
2022/05/22 05:54:34;;;;;;;5.53;1.93;;;;;;;22.28;96.69;63187.72;5091558;28;20204;-71
2022/05/22 05:57:03;;;;;;;4.23;1.97;;;;;;;22.29;99.22;63191.41;5092324;28;20231;-71
2022/05/22 05:59:33;;;;;;;2.90;1.70;;;;;;;22.40;97.41;63200.72;5091985;28;20204;-74
2022/05/22 06:02:00;;;;;;;2.97;1.90;;;;;;;22.29;96.10;63186.22;5091847;28;20579;-74
2022/05/22 06:04:27;;;;;;;2.07;1.90;;;;;;;22.27;98.29;63184.03;5091642;28;20199;-73
2022/05/22 06:06:53;;;;;;;6.93;2.33;;;;;;;22.38;100.00;63201.16;5091444;28;20204;-72
2022/05/22 06:09:21;;;;;;;5.33;1.97;;;;;;;22.35;97.60;63192.72;5091341;28;20200;-72
2022/05/22 06:11:48;;;;;;;2.13;1.90;;;;;;;22.17;98.74;63173.22;5091704;28;20203;-72
2022/05/22 06:14:16;;;;;;;4.50;1.93;;;;;;;22.24;93.28;63182.84;5091186;28;20648;-72
2022/05/22 06:16:42;;;;;;;6.47;2.03;;;;;;;22.35;94.67;63192.72;5091445;28;20284;-73
2022/05/22 06:19:09;;;;;;;4.90;1.90;;;;;;;22.38;93.57;63198.00;5091358;28;20238;-73
2022/05/22 06:21:36;;;;;;;3.80;2.07;;;;;;;22.57;92.20;63216.56;5091361;28;20229;-72
2022/05/22 06:24:05;;;;;;;3.77;1.83;;;;;;;22.51;88.36;63210.03;5091532;28;20226;-71
2022/05/22 06:26:33;;;;;;;3.00;2.10;;;;;;;22.40;88.85;63202.75;5091254;28;20690;-72
2022/05/22 06:29:00;;;;;;;6.13;2.10;;;;;;;22.43;88.51;63206.56;5073154;28;20231;-73
2022/05/22 06:31:31;;;;;;;3.20;1.97;;;;;;;22.51;89.85;63215.25;5091024;28;20195;-73
2022/05/22 06:33:58;;;;;;;6.07;2.00;;;;;;;22.54;92.79;63213.28;5091121;28;20215;-74
2022/05/22 06:36:25;;;;;;;4.33;1.97;;;;;;;22.58;88.25;63222.84;5091084;28;20207;-71
2022/05/22 06:41:41;;;;;;;6.27;2.23;;;;;;;22.48;93.96;63206.78;5095198;28;20292;-73
2022/05/22 06:44:08;;;;;;;6.20;2.30;;;;;;;22.44;93.10;63199.31;5095115;28;20561;-71
2022/05/22 06:46:35;;;;;;;1.97;1.60;;;;;;;22.41;97.38;63204.41;5094668;28;20200;-73
2022/05/22 06:49:02;;;;;;;4.80;2.13;;;;;;;22.40;96.62;63203.31;5094880;28;20226;-72
2022/05/22 06:51:29;;;;;;;3.80;2.00;;;;;;;22.35;96.58;63192.72;5094519;28;20238;-71
2022/05/22 06:53:56;;;;;;;5.57;1.90;;;;;;;22.44;98.53;63207.66;5094616;28;20273;-74
2022/05/22 06:56:23;;;;;;;4.57;2.20;;;;;;;22.06;97.99;63163.88;5076732;28;20202;-73
2022/05/22 06:58:51;;;;;;;3.80;1.87;;;;;;;22.39;95.96;63202.25;5095030;28;20308;-73
2022/05/22 07:01:19;;;;;;;3.33;2.00;;;;;;;22.41;100.00;63199.22;5094701;28;20196;-72
2022/05/22 07:03:47;;;;;;;4.03;2.07;;;;;;;21.84;100.00;63134.88;5097287;28;20205;-72
2022/05/22 07:06:15;;;;;;;9.93;2.03;;;;;;;22.41;100.00;63199.22;5095067;28;20200;-72
2022/05/22 07:08:41;;;;;;;3.60;2.00;;;;;;;22.52;99.28;63216.31;5094615;28;20261;-71
2022/05/22 07:13:53;;;;;;;5.93;2.07;;;;;;;22.41;100.00;63203.84;5083600;28;20214;-72
2022/05/22 07:16:21;;;;;;;5.20;1.90;;;;;;;22.45;100.00;63208.19;5094606;28;20204;-72
2022/05/22 07:18:47;;;;;;;6.10;1.90;;;;;;;22.43;100.00;63201.38;5094208;28;20697;-72
2022/05/22 07:21:14;;;;;;;4.80;2.30;;;;;;;22.18;100.00;63173.75;5094545;28;20260;-73
2022/05/22 07:23:42;;;;;;;4.20;2.00;;;;;;;22.35;100.00;63202.56;5094325;28;20202;-74
2022/05/22 07:26:09;;;;;;;4.70;2.50;;;;;;;22.35;100.00;63197.91;5094442;28;20206;-72
2022/05/22 07:28:36;;;;;;;2.70;2.00;;;;;;;22.52;100.00;63216.31;5094272;28;20195;-72
2022/05/22 07:31:05;;;;;;;7.17;2.20;;;;;;;21.95;100.00;63149.38;5094163;28;20253;-72
2022/05/22 07:33:32;;;;;;;5.20;2.00;;;;;;;22.53;100.00;63214.81;5093977;28;20227;-73
2022/05/22 07:36:00;;;;;;;7.20;2.60;;;;;;;22.75;100.00;63234.97;5094717;28;20256;-73
2022/05/22 07:38:28;;;;;;;3.40;2.30;;;;;;;22.75;100.00;63235.53;5094189;28;20281;-72
2022/05/22 07:40:55;;;;;;;9.30;1.90;;;;;;;22.78;100.00;63248.63;5094231;28;20235;-72
2022/05/22 07:43:22;;;;;;;5.10;2.10;;;;;;;22.78;100.00;63238.25;5095146;28;20227;-72
2022/05/22 07:45:49;;;;;;;4.57;2.30;;;;;;;22.73;100.00;63232.81;5093970;28;20205;-72
2022/05/22 07:48:17;;;;;;;5.97;2.20;;;;;;;23.06;100.00;63268.59;5093210;28;20219;-72
2022/05/22 07:50:44;;;;;;;3.60;2.20;;;;;;;23.30;100.00;63294.59;5093564;28;20191;-73
2022/05/22 07:53:11;;;;;;;6.00;2.50;;;;;;;23.35;100.00;63300.03;5093433;28;20191;-72
2022/05/22 07:55:39;;;;;;;5.53;2.20;;;;;;;23.27;100.00;63291.34;5093615;28;20258;-73
2022/05/22 07:58:06;;;;;;;7.07;2.60;;;;;;;23.61;100.00;63328.22;5093475;28;20227;-73
2022/05/22 08:00:34;;;;;;;8.80;3.07;;;;;;;23.58;100.00;63324.44;5093181;28;20196;-72
2022/05/22 08:03:08;;;;;;;5.50;2.40;;;;;;;23.32;100.00;63299.91;5093592;28;20203;-72
2022/05/22 08:05:36;;;;;;;5.10;2.20;;;;;;;23.89;100.00;63358.59;5093730;28;20207;-71
2022/05/22 08:08:03;;;;;;;5.03;3.67;;;;;;;24.03;100.00;63376.41;5093243;28;20199;-72
2022/05/22 08:10:30;;;;;;;4.47;2.47;;;;;;;24.08;100.00;63383.91;5093158;28;20199;-72
2022/05/22 08:12:57;;;;;;;5.90;2.30;;;;;;;23.86;100.00;63357.97;5092936;28;20208;-72
2022/05/22 08:15:26;;;;;;;9.30;2.50;;;;;;;23.14;100.00;63282.47;5092842;28;20191;-73
2022/05/22 08:17:53;;;;;;;7.87;2.93;;;;;;;23.68;98.61;63337.88;5092626;28;20227;-72
2022/05/22 08:20:21;;;;;;;7.70;2.60;;;;;;;23.80;100.00;63348.84;5092950;28;20199;-72
2022/05/22 08:22:54;;;;;;;5.90;2.20;;;;;;;23.93;100.00;63368.16;5092777;28;20191;-72
2022/05/22 08:25:22;;;;;;;6.13;2.17;;;;;;;23.98;100.00;63365.78;5092583;28;20208;-73
2022/05/22 08:27:49;;;;;;;3.97;2.63;;;;;;;24.00;100.00;63377.81;5093202;28;20192;-73
2022/05/22 08:30:18;;;;;;;6.57;3.00;;;;;;;24.11;100.00;63387.69;5093201;28;20260;-72
2022/05/22 08:32:47;;;;;;;7.17;2.23;;;;;;;23.63;100.00;63330.41;5093130;28;20200;-71
2022/05/22 08:35:16;;;;;;;8.43;2.83;;;;;;;24.29;100.00;63407.22;5092702;28;20200;-73
2022/05/22 08:37:43;;;;;;;3.97;2.10;;;;;;;24.13;100.00;63384.66;5092535;28;20223;-72
2022/05/22 08:40:15;;;;;;;9.63;2.33;;;;;;;24.17;100.00;63389.00;5092335;28;20265;-72
2022/05/22 08:42:43;;;;;;;4.23;2.50;;;;;;;24.18;100.00;63395.31;5092742;28;20642;-73
2022/05/22 08:45:15;;;;;;;3.67;2.37;;;;;;;24.25;100.00;63397.13;5092741;28;20208;-72
2022/05/22 08:47:56;;;;;;;6.17;2.50;;;;;;;24.41;100.00;63413.97;5092862;28;20199;-72
2022/05/22 08:50:24;;;;;;;8.90;3.00;;;;;;;23.76;100.00;63347.13;5092514;28;20196;-71
2022/05/22 08:52:55;;;;;;;10.70;2.70;;;;;;;23.68;100.00;63335.84;5093030;28;20200;-73
2022/05/22 08:55:26;;;;;;;11.63;2.77;;;;;;;24.01;100.00;63376.28;5092561;28;20200;-72
2022/05/22 09:00:44;;;;;;;5.73;2.70;;;;;;;24.69;100.00;63444.38;5091481;28;20198;-71
2022/05/22 09:03:20;;;;;;;8.23;2.30;;;;;;;24.15;100.00;63386.84;5092257;28;20686;-72
2022/05/22 09:05:50;;;;;;;8.13;2.50;;;;;;;24.33;100.00;63402.69;5092616;28;20198;-72
2022/05/22 09:08:21;;;;;;;5.23;2.60;;;;;;;23.70;100.00;63337.47;5092247;28;20212;-73
2022/05/22 09:11:02;;;;;;;6.27;2.73;;;;;;;24.06;100.00;63377.06;5092365;28;20199;-72
2022/05/22 09:13:34;;;;;;;7.83;2.20;;;;;;;23.75;100.00;63343.41;5092126;28;20195;-72
2022/05/22 09:16:10;;;;;;;4.57;2.30;;;;;;;22.95;100.00;63261.84;5092109;28;20654;-73
2022/05/22 09:18:39;;;;;;;4.13;2.47;;;;;;;23.80;100.00;63354.06;5091918;28;20231;-72
2022/05/22 09:21:18;;;;;;;5.57;2.17;;;;;;;23.38;100.00;63303.31;5092072;28;20265;-71
2022/05/22 09:23:58;;;;;;;5.43;2.40;;;;;;;23.25;100.00;63294.94;5091676;28;20638;-72
2022/05/22 09:26:57;;;;;;;4.50;2.57;;;;;;;23.02;100.00;63266.84;5092510;28;20201;-71
2022/05/22 09:29:39;;;;;;;7.53;2.50;;;;;;;22.89;100.00;63250.16;5091886;28;20621;-73
2022/05/22 09:32:19;;;;;;;5.73;2.47;;;;;;;22.88;100.00;63249.09;5091753;28;20199;-72
2022/05/22 09:35:00;;;;;;;3.63;2.33;;;;;;;23.00;100.00;63262.09;5091599;28;20701;-72
2022/05/22 09:37:40;;;;;;;3.20;2.40;;;;;;;23.00;100.00;63267.28;5091825;28;20200;-72
2022/05/22 09:40:23;;;;;;;3.67;2.53;;;;;;;23.04;100.00;63272.16;5091847;28;20245;-75
2022/05/22 09:43:25;;;;;;;4.97;2.60;;;;;;;23.27;100.00;63291.91;5091602;28;20580;-72
2022/05/22 09:46:07;;;;;;;5.30;2.07;;;;;;;23.41;100.00;63306.53;5086004;28;20731;-73
2022/05/22 09:48:54;;;;;;;7.27;2.67;;;;;;;23.68;100.00;63338.44;5073494;28;20195;-71
2022/05/22 09:51:32;;;;;;;6.20;2.10;;;;;;;23.89;100.00;63363.81;5091733;28;20629;-72
2022/05/22 09:54:18;;;;;;;3.60;2.00;;;;;;;23.98;100.00;63368.38;5091659;28;20196;-74
2022/05/22 09:56:57;;;;;;;9.93;2.40;;;;;;;24.46;100.00;63419.38;5091642;28;20203;-73
2022/05/22 09:59:43;;;;;;;7.00;2.43;;;;;;;24.88;100.00;63462.94;5090382;28;20659;-72
2022/05/22 10:02:24;;;;;;;4.33;2.10;;;;;;;25.38;100.00;63519.31;5091800;28;20208;-73
2022/05/22 10:05:01;;;;;;;5.13;2.17;;;;;;;25.66;97.61;63549.75;5091724;28;20253;-72
2022/05/22 10:07:39;;;;;;;6.47;2.30;;;;;;;26.13;100.00;63599.75;5091586;28;20197;-73
2022/05/22 10:10:16;;;;;;;5.20;1.80;;;;;;;26.18;87.73;63605.19;5091946;28;20199;-72
2022/05/22 10:12:52;;;;;;;3.50;2.00;;;;;;;25.25;92.54;63507.81;5094705;28;20206;-73
2022/05/22 10:15:40;;;;;;;3.83;2.00;;;;;;;26.16;90.63;63603.00;5095236;28;20328;-72
2022/05/22 10:18:19;;;;;;;4.33;2.00;;;;;;;26.13;93.36;63594.53;5093050;28;20263;-72
2022/05/22 10:20:56;;;;;;;5.80;2.17;;;;;;;26.29;92.70;63622.38;5095197;28;20201;-73
2022/05/22 10:23:40;;;;;;;2.47;1.77;;;;;;;26.23;89.43;63615.84;5095286;28;20240;-72
2022/05/22 10:26:17;;;;;;;4.30;2.23;;;;;;;26.77;89.85;63669.34;5095302;28;20192;-72
2022/05/22 10:28:49;;;;;;;3.30;2.10;;;;;;;26.23;90.41;63613.22;5095334;28;20210;-72
2022/05/22 10:31:21;;;;;;;3.90;2.23;;;;;;;26.04;98.00;63589.94;5095970;28;20275;-72
2022/05/22 10:33:55;;;;;;;3.70;1.97;;;;;;;25.76;96.62;63562.66;5095449;28;20301;-73
2022/05/22 10:36:25;;;;;;;4.63;2.37;;;;;;;25.64;95.50;63547.56;5095277;28;20195;-72
2022/05/22 10:38:56;;;;;;;9.30;2.57;;;;;;;25.76;95.44;63565.81;5094945;28;20280;-72
2022/05/22 10:44:16;;;;;;;3.23;2.13;;;;;;;26.17;93.58;63606.72;5095112;28;20689;-72
2022/05/22 10:46:49;;;;;;;6.93;2.53;;;;;;;25.54;96.18;63536.69;5094811;28;20203;-72
2022/05/22 10:49:18;;;;;;;4.50;2.10;;;;;;;25.75;96.64;63564.75;5094774;28;20259;-72
2022/05/22 10:51:55;;;;;;;3.47;2.10;;;;;;;25.64;100.00;63550.19;5094785;28;20254;-71
2022/05/22 10:54:25;;;;;;;11.07;2.40;;;;;;;25.62;100.00;63548.00;5094532;28;20242;-71
2022/05/22 10:56:52;;;;;;;6.37;2.40;;;;;;;25.56;98.81;63538.88;5094925;28;20202;-73
2022/05/22 10:59:23;;;;;;;14.33;3.10;;;;;;;25.43;99.65;63524.22;5094460;28;20227;-72
2022/05/22 11:02:00;;;;;;;5.67;2.30;;;;;;;25.36;100.00;63519.75;5094613;28;20197;-73
2022/05/22 11:04:39;;;;;;;3.20;2.00;;;;;;;25.25;100.00;63507.81;5094594;28;20200;-72
2022/05/22 11:07:07;;;;;;;6.60;2.47;;;;;;;24.76;100.00;63455.13;5095290;28;20196;-73
2022/05/22 11:09:41;;;;;;;7.37;2.30;;;;;;;25.15;100.00;63494.34;5094752;28;20288;-73
2022/05/22 11:12:12;;;;;;;7.83;2.37;;;;;;;25.44;100.00;63530.50;5094602;28;20204;-73
2022/05/22 11:14:40;;;;;;;11.70;2.40;;;;;;;25.20;100.00;63499.75;5094439;28;20214;-73
2022/05/22 11:17:16;;;;;;;6.13;2.30;;;;;;;25.01;100.00;63479.13;5094478;28;20618;-73
2022/05/22 11:19:47;;;;;;;1.80;1.70;;;;;;;25.73;88.79;63557.34;5094276;28;20269;-72
2022/05/22 11:22:36;;;;;;;7.73;2.00;;;;;;;25.96;86.00;63576.56;5094645;28;20580;-72
2022/05/22 11:25:23;;;;;;;7.70;2.40;;;;;;;26.44;86.51;63633.97;5094089;28;20202;-74
2022/05/22 11:28:04;;;;;;;3.50;2.40;;;;;;;26.27;91.57;63614.97;5094159;28;20666;-72
2022/05/22 11:30:42;;;;;;;6.93;2.37;;;;;;;26.98;93.06;63692.19;5094047;28;20248;-72
2022/05/22 11:33:20;;;;;;;7.30;2.43;;;;;;;27.17;95.91;63712.84;5093956;28;20268;-71
2022/05/22 11:35:59;;;;;;;5.80;2.67;;;;;;;27.43;92.47;63745.84;5094085;28;20232;-73
2022/05/22 11:38:41;;;;;;;4.23;2.27;;;;;;;27.64;90.24;63762.94;5093981;28;20231;-72
2022/05/22 11:41:20;;;;;;;5.27;2.20;;;;;;;28.13;87.15;63819.44;5094055;28;20281;-71
2022/05/22 11:44:26;;;;;;;5.03;2.03;;;;;;;28.18;82.31;63821.72;5093951;28;20203;-72
2022/05/22 11:47:08;;;;;;;8.90;2.00;;;;;;;27.41;86.35;63738.97;5063441;28;20200;-73
2022/05/22 11:49:39;;;;;;;5.83;2.30;;;;;;;27.05;91.35;63705.03;5073651;28;20250;-73
2022/05/22 11:55:26;;;;;;;6.20;2.40;;;;;;;26.59;100.00;63649.75;5073929;28;20273;-73
2022/05/22 11:58:04;;;;;;;6.37;2.60;;;;;;;26.52;100.00;63642.16;5073767;28;20228;-73
2022/05/22 12:00:37;;;;;;;5.10;2.20;;;;;;;26.17;100.00;63604.09;5073358;28;20569;-72